Terminal Aerodrome Forecast
Issued by NWS

Home | Current Version | Previous Version | Text Only | Print | Product List | Glossary On
Versions: 1 2 3 4 5 6 7 8 9 10 11 12 13 14
985
FTUS45 KRIW 272333
TAFCPR
TAF
KCPR 272333Z 2800/2824 27016G26KT P6SM VCTS SCT080CB BKN120
      TEMPO 2800/2802 VRB20G35KT -SHRA BKN050
     FM280300 34011G18KT P6SM VCSH BKN100
     FM280600 VRB05KT P6SM SCT090 BKN120
     FM281500 22010G16KT P6SM FEW100
     FM281900 26017G26KT P6SM SCT100=

USA.gov is the U.S. government's official web portal to all federal, state and local government web resources and services.